Time;durP1;ratioP1;P1;durP2;ratioP2;P2;SDS_P1;SDS_P2;PMS_P1;PMS_P2;Temp;Humidity;BMP_temperature;BMP_pressure;BME280_temperature;BME280_humidity;BME280_pressure;Samples;Min_cycle;Max_cycle;Signal;HPM_P1;HPM_P2
2022/12/14 00:01:23;;;;;;;14.82;7.15;;;;;;;-0.06;58.64;100239.22;3604081;39;20275;-63
2022/12/14 00:03:50;;;;;;;16.95;8.02;;;;;;;-0.11;58.35;100224.41;3602699;39;20055;-63
2022/12/14 00:06:19;;;;;;;14.48;7.30;;;;;;;-0.12;58.22;100230.63;3603980;39;20070;-63
2022/12/14 00:08:48;;;;;;;15.07;8.15;;;;;;;-0.11;59.49;100220.00;3605617;39;20055;-64
2022/12/14 00:11:14;;;;;;;12.98;7.45;;;;;;;-0.15;58.13;100214.84;3604544;39;20051;-64
2022/12/14 00:13:41;;;;;;;13.13;7.75;;;;;;;-0.32;59.04;100181.84;3607147;39;20051;-63
2022/12/14 00:16:14;;;;;;;14.63;7.13;;;;;;;-0.13;58.97;100202.44;3605269;39;20124;-63
2022/12/14 00:18:41;;;;;;;13.50;8.02;;;;;;;-0.16;58.95;100202.53;3603989;39;20144;-63
2022/12/14 00:21:12;;;;;;;13.15;6.80;;;;;;;-0.22;57.71;100186.84;3605438;39;20050;-64
2022/12/14 00:23:41;;;;;;;13.52;6.82;;;;;;;-0.16;58.53;100202.53;3605333;39;20373;-63
2022/12/14 00:26:25;;;;;;;11.45;7.20;;;;;;;-0.14;58.11;100201.59;3604806;39;20067;-63
2022/12/14 00:28:54;;;;;;;12.85;7.15;;;;;;;-0.17;58.76;100192.88;3605549;39;20404;-63
2022/12/14 00:31:22;;;;;;;11.30;7.28;;;;;;;-0.15;57.73;100212.22;3607250;39;20198;-63
2022/12/14 00:33:49;;;;;;;16.55;7.20;;;;;;;-0.33;57.98;100164.25;3608518;39;20147;-63
2022/12/14 00:36:16;;;;;;;11.40;6.82;;;;;;;-0.16;57.83;100197.25;3609887;39;20081;-62
2022/12/14 00:38:41;;;;;;;11.15;7.03;;;;;;;-0.18;57.75;100193.81;3604939;39;20051;-63
2022/12/14 00:41:09;;;;;;;11.00;6.97;;;;;;;-0.18;58.46;100183.25;3609652;39;20127;-64
2022/12/14 00:43:35;;;;;;;13.57;6.90;;;;;;;-0.19;57.97;100197.34;3605561;39;20471;-66
2022/12/14 00:46:01;;;;;;;10.90;6.78;;;;;;;-0.17;57.76;100182.31;3607446;39;20073;-66
2022/12/14 00:48:27;;;;;;;11.50;7.40;;;;;;;-0.25;57.68;100164.94;3607190;39;20515;-64
2022/12/14 00:50:55;;;;;;;11.63;7.00;;;;;;;-0.21;58.15;100173.63;3607015;39;20386;-63
2022/12/14 00:53:22;;;;;;;12.90;6.75;;;;;;;-0.25;57.88;100172.84;3608081;39;20385;-63
2022/12/14 00:55:49;;;;;;;11.30;6.93;;;;;;;-0.27;57.77;100171.16;3604874;39;20051;-64
2022/12/14 00:58:18;;;;;;;13.90;7.18;;;;;;;-0.31;58.52;100173.00;3604287;39;20061;-64
2022/12/14 01:00:45;;;;;;;12.13;7.10;;;;;;;-0.35;57.56;100168.75;3605367;39;20055;-64
2022/12/14 01:03:11;;;;;;;13.15;6.43;;;;;;;-0.42;58.13;100171.56;3603965;39;20394;-64
2022/12/14 01:05:38;;;;;;;11.65;6.85;;;;;;;-0.45;58.09;100166.38;3604918;39;20059;-64
2022/12/14 01:08:05;;;;;;;12.68;6.75;;;;;;;-0.50;58.42;100172.66;3604944;39;20082;-64
2022/12/14 01:10:31;;;;;;;13.10;7.05;;;;;;;-0.53;58.19;100158.69;3605207;39;20108;-64
2022/12/14 01:12:56;;;;;;;14.45;7.07;;;;;;;-0.58;57.56;100155.28;3606880;39;20051;-64
2022/12/14 01:15:22;;;;;;;14.43;6.97;;;;;;;-0.60;58.78;100154.44;3606225;39;20143;-63
2022/12/14 01:17:50;;;;;;;11.88;6.60;;;;;;;-0.62;59.01;100151.00;3606905;39;20112;-63
2022/12/14 01:20:16;;;;;;;11.82;6.93;;;;;;;-0.67;58.59;100145.81;3605452;39;20053;-64
2022/12/14 01:22:42;;;;;;;12.77;7.05;;;;;;;-0.67;59.44;100147.59;3608897;39;20059;-64
2022/12/14 01:25:08;;;;;;;10.35;6.45;;;;;;;-0.78;58.26;100134.72;3606521;39;20054;-64
2022/12/14 01:27:34;;;;;;;11.90;6.90;;;;;;;-0.72;58.53;100145.97;3607297;39;20124;-63
2022/12/14 01:30:00;;;;;;;12.75;6.95;;;;;;;-0.71;59.20;100147.69;3605803;39;20070;-63
2022/12/14 01:32:25;;;;;;;14.20;6.93;;;;;;;-0.72;59.44;100142.47;3599160;39;20286;-64
2022/12/14 01:34:51;;;;;;;13.32;7.07;;;;;;;-0.68;58.43;100137.97;3606959;39;20043;-64
2022/12/14 01:37:16;;;;;;;11.57;6.78;;;;;;;-0.69;59.51;100139.75;3607481;39;20051;-64
2022/12/14 01:39:42;;;;;;;13.38;6.43;;;;;;;-0.69;58.71;100138.88;3606507;39;20055;-63
2022/12/14 01:42:12;;;;;;;13.32;7.10;;;;;;;-0.74;59.65;100137.22;3608120;39;20046;-63
2022/12/14 01:44:38;;;;;;;13.68;7.05;;;;;;;-0.69;58.43;100141.53;3608795;39;20362;-63
2022/12/14 01:47:20;;;;;;;11.05;6.82;;;;;;;-0.77;59.40;100132.00;3616803;39;20128;-63
2022/12/14 01:50:19;;;;;;;11.13;6.43;;;;;;;-0.68;59.33;100149.38;3608912;39;20043;-63
2022/12/14 01:52:50;;;;;;;12.82;7.07;;;;;;;-0.68;59.31;100146.75;3612487;39;20046;-63
2022/12/14 01:55:31;;;;;;;11.65;6.72;;;;;;;-0.71;59.24;100144.19;3607631;39;20057;-63
2022/12/14 01:58:13;;;;;;;11.63;6.55;;;;;;;-1.25;59.03;100053.28;3608585;39;20066;-63
2022/12/14 02:00:40;;;;;;;11.32;6.80;;;;;;;-0.72;58.55;100139.81;3603826;39;20051;-64
2022/12/14 02:03:35;;;;;;;13.48;7.13;;;;;;;-0.73;58.90;100130.16;3605235;39;20043;-63
2022/12/14 02:06:24;;;;;;;13.10;6.63;;;;;;;-0.78;59.44;100127.66;3605834;39;20149;-62
2022/12/14 02:08:54;;;;;;;12.45;6.97;;;;;;;-0.79;59.11;100125.94;3604890;39;20119;-62
2022/12/14 02:11:45;;;;;;;13.10;6.85;;;;;;;-0.81;59.55;100119.81;3607349;39;20090;-63
2022/12/14 02:14:11;;;;;;;11.45;6.32;;;;;;;-0.78;58.75;100119.75;3616307;39;20050;-63
2022/12/14 02:16:39;;;;;;;12.85;7.15;;;;;;;-0.77;58.47;100118.81;3609379;39;20079;-63
2022/12/14 02:19:05;;;;;;;13.02;7.20;;;;;;;-0.77;59.73;100107.41;3606820;39;20423;-64
2022/12/14 02:22:05;;;;;;;12.57;7.18;;;;;;;-0.81;58.77;100106.63;3607403;39;20075;-63
2022/12/14 02:25:22;;;;;;;11.93;6.60;;;;;;;-0.84;58.95;100112.00;3609323;39;20051;-63
2022/12/14 02:28:21;;;;;;;9.45;5.68;;;;;;;-0.86;59.46;100115.56;3608401;39;20054;-62
2022/12/14 02:31:20;;;;;;;9.88;6.07;;;;;;;-0.99;58.75;100091.28;3609426;39;20490;-64
2022/12/14 02:34:28;;;;;;;10.15;6.40;;;;;;;-0.90;59.47;100109.50;3609101;39;20088;-64
2022/12/14 02:37:18;;;;;;;10.68;6.30;;;;;;;-0.94;59.03;100114.00;3578494;39;20080;-64
2022/12/14 02:40:27;;;;;;;14.45;6.85;;;;;;;-0.93;59.05;100101.69;3607925;39;20254;-64
2022/12/14 02:43:27;;;;;;;10.82;6.10;;;;;;;-0.89;59.47;100102.47;3608964;39;20047;-64
2022/12/14 02:46:03;;;;;;;10.75;6.20;;;;;;;-0.91;58.96;100105.16;3593263;39;20249;-64
2022/12/14 02:48:40;;;;;;;10.77;5.95;;;;;;;-0.89;58.87;100100.69;3609599;39;20055;-63
2022/12/14 02:51:15;;;;;;;12.60;6.80;;;;;;;-0.87;59.57;100098.88;3604884;39;20299;-64
2022/12/14 02:54:08;;;;;;;9.50;5.85;;;;;;;-0.87;60.02;100103.28;3604181;39;20059;-64
2022/12/14 02:56:50;;;;;;;10.75;6.03;;;;;;;-1.11;58.84;100058.22;3605737;39;20052;-64
2022/12/14 02:59:18;;;;;;;10.95;6.60;;;;;;;-0.86;59.83;100100.59;3604133;39;20872;-65
2022/12/14 03:01:50;;;;;;;10.07;5.75;;;;;;;-0.89;59.19;100090.13;3603433;39;20051;-64
2022/12/14 03:04:16;;;;;;;11.35;6.70;;;;;;;-0.82;58.81;100102.28;3607409;39;20124;-64
2022/12/14 03:07:32;;;;;;;13.88;6.20;;;;;;;-0.79;58.84;100104.81;3606658;39;20067;-64
2022/12/14 03:10:28;;;;;;;10.82;6.03;;;;;;;-0.78;59.29;100103.06;3600715;39;20052;-64
2022/12/14 03:13:20;;;;;;;10.20;6.20;;;;;;;-0.76;59.46;100099.47;3600524;39;20058;-64
2022/12/14 03:15:57;;;;;;;11.73;6.93;;;;;;;-0.77;59.21;100087.16;3604033;39;20051;-64
2022/12/14 03:18:30;;;;;;;12.07;6.45;;;;;;;-0.71;58.86;100096.69;3603061;39;20067;-64
2022/12/14 03:21:01;;;;;;;13.75;7.15;;;;;;;-0.70;58.85;100085.22;3608257;39;20054;-64
2022/12/14 03:23:36;;;;;;;11.23;6.35;;;;;;;-0.70;59.05;100079.94;3606165;39;20052;-64
2022/12/14 03:26:29;;;;;;;11.38;6.53;;;;;;;-0.72;58.40;100077.34;3603191;39;20349;-64
2022/12/14 03:29:28;;;;;;;10.68;6.18;;;;;;;-0.65;58.35;100078.03;3596280;39;20051;-64
2022/12/14 03:32:10;;;;;;;10.88;6.30;;;;;;;-0.69;58.98;100054.44;3606577;39;20046;-64
2022/12/14 03:34:56;;;;;;;11.98;6.25;;;;;;;-0.61;59.53;100057.72;3606648;39;20058;-64
2022/12/14 03:37:34;;;;;;;9.88;6.43;;;;;;;-0.63;59.64;100055.13;3605818;39;20062;-64
2022/12/14 03:40:00;;;;;;;9.82;5.82;;;;;;;-0.62;59.63;100050.72;3605101;39;20389;-64
2022/12/14 03:43:17;;;;;;;9.75;5.50;;;;;;;-0.60;59.19;100054.16;3602907;39;20095;-64
2022/12/14 03:45:58;;;;;;;9.13;5.75;;;;;;;-0.60;58.79;100049.75;3605784;39;20091;-64
2022/12/14 03:48:53;;;;;;;11.32;6.60;;;;;;;-0.63;58.37;100056.91;3605237;39;20059;-64
2022/12/14 03:51:42;;;;;;;11.52;5.80;;;;;;;-0.63;58.42;100054.28;3603421;39;20042;-64
2022/12/14 03:54:25;;;;;;;12.05;6.38;;;;;;;-0.63;58.31;100049.00;3601309;39;20074;-64
2022/12/14 03:57:08;;;;;;;9.93;6.35;;;;;;;-0.61;59.28;100047.16;3603549;39;20055;-64
2022/12/14 04:00:00;;;;;;;12.10;6.55;;;;;;;-0.59;59.01;100042.72;3602830;39;20125;-66
2022/12/14 04:02:51;;;;;;;10.65;6.60;;;;;;;-0.59;58.08;100042.72;3603239;39;20071;-64
2022/12/14 04:05:38;;;;;;;10.45;6.32;;;;;;;-0.56;58.44;100029.41;3603897;39;20047;-64
2022/12/14 04:08:21;;;;;;;10.40;6.22;;;;;;;-0.55;59.01;100032.00;3604144;39;20055;-64
2022/12/14 04:20:06;;;;;;;12.00;6.97;;;;;;;-0.51;58.65;100014.28;3603532;39;20290;-64
2022/12/14 04:22:40;;;;;;;10.85;6.57;;;;;;;-0.56;58.56;100001.25;3603341;39;20074;-64
2022/12/14 04:29:54;;;;;;;11.50;6.57;;;;;;;-0.57;59.49;100004.81;3603174;39;20095;-64
2022/12/14 04:31:08;;;;;;;10.38;6.70;;;;;;;-0.64;59.08;99994.47;3605780;39;20063;-64
2022/12/14 04:33:47;;;;;;;12.80;6.40;;;;;;;-0.53;59.35;100008.22;3607363;39;20411;-64
2022/12/14 04:36:41;;;;;;;12.43;6.18;;;;;;;-0.63;59.62;99990.94;3605985;39;20051;-64
2022/12/14 04:39:18;;;;;;;12.23;6.78;;;;;;;-0.52;58.57;99996.75;3603398;39;20109;-64
2022/12/14 04:41:52;;;;;;;12.23;6.75;;;;;;;-0.54;58.63;99995.91;3603992;39;20057;-64
2022/12/14 04:44:31;;;;;;;14.73;7.57;;;;;;;-0.72;59.28;99965.66;3604910;39;20061;-64
2022/12/14 04:47:03;;;;;;;9.57;6.55;;;;;;;-0.56;59.68;99988.06;3610094;39;20386;-64
2022/12/14 04:49:42;;;;;;;10.85;6.28;;;;;;;-0.55;59.17;99999.47;3604964;39;20060;-64
2022/12/14 04:52:16;;;;;;;10.82;6.72;;;;;;;-0.56;59.47;99985.41;3605082;39;20056;-64
2022/12/14 04:54:59;;;;;;;9.20;6.10;;;;;;;-0.67;59.62;99968.16;3604574;39;20404;-64
2022/12/14 04:57:53;;;;;;;14.15;6.55;;;;;;;-0.59;58.89;99977.59;3603328;39;20055;-64
2022/12/14 05:00:19;;;;;;;10.38;6.60;;;;;;;-0.56;59.50;99976.63;3605528;39;20065;-64
2022/12/14 05:03:24;;;;;;;14.18;7.03;;;;;;;-0.52;59.73;99978.25;3609511;39;20074;-63
2022/12/14 05:06:20;;;;;;;14.80;6.93;;;;;;;-0.53;58.89;99980.03;3605332;39;20298;-62
2022/12/14 05:09:10;;;;;;;11.35;6.35;;;;;;;-0.54;58.82;99990.63;3603105;39;20063;-63
2022/12/14 05:11:58;;;;;;;12.30;7.05;;;;;;;-0.55;59.34;99981.00;3604010;39;20047;-63
2022/12/14 05:14:47;;;;;;;10.98;6.32;;;;;;;-0.56;58.73;99977.50;3604263;39;20393;-64
2022/12/14 05:17:15;;;;;;;16.52;9.77;;;;;;;-0.53;59.80;99966.84;3612422;39;20046;-63
2022/12/14 05:19:49;;;;;;;13.20;6.88;;;;;;;-0.54;59.38;99973.03;3606952;39;20063;-63
2022/12/14 05:22:17;;;;;;;13.35;6.82;;;;;;;-0.53;58.61;99972.13;3605443;39;20088;-63
2022/12/14 05:24:43;;;;;;;12.45;6.00;;;;;;;-0.51;58.33;99969.41;3607032;39;20051;-64
2022/12/14 05:27:08;;;;;;;11.23;6.70;;;;;;;-0.59;58.98;99952.97;3603815;39;20103;-63
2022/12/14 05:29:34;;;;;;;9.57;6.18;;;;;;;-0.50;58.88;99968.53;3604227;39;20051;-63
2022/12/14 05:32:01;;;;;;;11.35;6.50;;;;;;;-0.59;58.89;99945.91;3608443;39;20058;-63
2022/12/14 05:34:27;;;;;;;12.40;6.65;;;;;;;-0.52;58.94;99954.50;3604813;39;20414;-63
2022/12/14 05:36:52;;;;;;;14.40;6.65;;;;;;;-0.52;59.67;99955.38;3597889;39;20055;-63
2022/12/14 05:39:18;;;;;;;11.32;6.63;;;;;;;-0.54;58.77;99961.59;3604805;39;20053;-66
2022/12/14 05:41:43;;;;;;;12.30;6.45;;;;;;;-0.54;58.74;99958.94;3605259;39;20060;-63
2022/12/14 05:44:09;;;;;;;10.20;6.10;;;;;;;-0.53;59.20;99956.28;3606135;39;20388;-63
2022/12/14 05:46:35;;;;;;;12.50;6.78;;;;;;;-0.52;58.52;99959.78;3610272;39;20063;-63
2022/12/14 05:49:01;;;;;;;13.35;6.70;;;;;;;-0.65;58.66;99935.53;3607114;39;20046;-62
2022/12/14 05:51:26;;;;;;;11.60;6.10;;;;;;;-0.52;58.60;99957.16;3604515;39;20047;-64
2022/12/14 05:53:52;;;;;;;11.55;6.18;;;;;;;-0.51;58.52;99964.13;3606652;39;20039;-63
2022/12/14 05:56:17;;;;;;;11.18;6.85;;;;;;;-0.50;59.58;99961.47;3604769;39;20137;-63
2022/12/14 05:58:43;;;;;;;11.80;6.53;;;;;;;-0.49;58.77;99962.31;3606987;39;20062;-63
2022/12/14 06:01:11;;;;;;;13.90;6.63;;;;;;;-0.65;58.83;99934.69;3606090;39;20055;-63
2022/12/14 06:03:37;;;;;;;10.90;6.18;;;;;;;-0.45;59.39;99963.97;3603361;39;20258;-63
2022/12/14 06:06:10;;;;;;;10.77;6.07;;;;;;;-0.46;59.25;99956.97;3606621;39;20637;-63
2022/12/14 06:08:40;;;;;;;13.65;6.68;;;;;;;-0.44;60.10;99949.88;3606122;39;20356;-63
2022/12/14 06:11:11;;;;;;;13.90;6.35;;;;;;;-0.43;59.81;99950.72;3606973;39;20340;-63
2022/12/14 06:13:38;;;;;;;13.80;6.90;;;;;;;-0.42;59.28;99948.03;3611216;39;20054;-64
2022/12/14 06:16:16;;;;;;;14.85;7.18;;;;;;;-0.45;59.70;99932.28;3603678;39;20058;-64
2022/12/14 06:18:49;;;;;;;14.88;7.25;;;;;;;-0.47;59.99;99932.34;3603682;39;20095;-63
2022/12/14 06:21:18;;;;;;;14.77;6.97;;;;;;;-0.44;60.31;99941.06;3603463;39;20055;-63
2022/12/14 06:23:45;;;;;;;16.17;6.80;;;;;;;-0.45;59.50;99942.84;3606685;39;20082;-63
2022/12/14 06:26:12;;;;;;;14.60;7.28;;;;;;;-0.62;59.93;99927.53;3604448;39;20058;-63
2022/12/14 06:28:38;;;;;;;12.65;6.53;;;;;;;-0.44;60.77;99949.88;3611501;39;20090;-63
2022/12/14 06:31:06;;;;;;;16.77;6.78;;;;;;;-0.44;60.47;99941.94;3604045;39;20083;-62
2022/12/14 06:33:34;;;;;;;10.57;6.18;;;;;;;-0.44;59.10;99939.31;3603633;39;20088;-64
2022/12/14 06:36:01;;;;;;;11.95;6.55;;;;;;;-0.43;60.25;99941.03;3607641;39;20054;-64
2022/12/14 06:38:28;;;;;;;14.80;6.40;;;;;;;-0.43;59.03;99945.44;3608085;39;20054;-64
2022/12/14 06:40:53;;;;;;;13.60;6.22;;;;;;;-0.44;59.80;99947.22;3607215;39;20411;-64
2022/12/14 06:43:19;;;;;;;12.05;6.40;;;;;;;-0.42;59.09;99953.31;3604042;39;20075;-63
2022/12/14 06:45:45;;;;;;;11.18;6.38;;;;;;;-0.42;59.20;99941.88;3611327;39;20055;-63
2022/12/14 06:48:10;;;;;;;13.65;6.00;;;;;;;-0.58;58.60;99920.38;3606708;39;20059;-65
2022/12/14 06:50:36;;;;;;;18.70;8.80;;;;;;;-0.40;58.73;99951.50;3606371;39;20062;-65
2022/12/14 06:53:02;;;;;;;12.20;6.38;;;;;;;-0.38;59.60;99954.97;3603587;39;20143;-64
2022/12/14 06:55:28;;;;;;;11.10;6.72;;;;;;;-0.48;59.46;99946.47;3609620;39;20091;-64
2022/12/14 06:57:54;;;;;;;11.05;6.05;;;;;;;-0.40;59.62;99954.13;3603426;39;20057;-64
2022/12/14 07:00:23;;;;;;;14.88;6.38;;;;;;;-0.40;59.26;99951.50;3604109;39;20381;-63
2022/12/14 07:02:49;;;;;;;11.85;6.53;;;;;;;-0.40;59.11;99955.91;3606526;39;20605;-63
2022/12/14 07:05:15;;;;;;;11.32;7.03;;;;;;;-0.43;60.33;99951.59;3604314;39;20062;-64
2022/12/14 07:07:42;;;;;;;10.75;6.47;;;;;;;-0.63;60.24;99931.09;3603230;39;20302;-64
2022/12/14 07:10:09;;;;;;;10.52;6.97;;;;;;;-0.51;60.81;99965.03;3606836;39;20093;-64
2022/12/14 07:12:35;;;;;;;13.07;7.25;;;;;;;-0.61;60.74;99958.28;3605312;39;20372;-64
2022/12/14 07:15:02;;;;;;;12.80;6.97;;;;;;;-0.61;61.71;99965.34;3603676;39;20353;-65
2022/12/14 07:17:27;;;;;;;13.50;6.80;;;;;;;-0.65;61.75;99963.72;3607236;39;20051;-64
2022/12/14 07:19:53;;;;;;;11.52;6.95;;;;;;;-0.68;61.26;99958.53;3606718;39;20040;-64
2022/12/14 07:22:19;;;;;;;15.20;6.95;;;;;;;-0.77;60.70;99954.38;3603856;39;20075;-65
2022/12/14 07:24:45;;;;;;;12.48;7.35;;;;;;;-0.74;62.18;99960.41;3606486;39;20051;-64
2022/12/14 07:27:10;;;;;;;15.10;7.55;;;;;;;-0.76;62.32;99967.53;3602860;39;20055;-64
2022/12/14 07:29:36;;;;;;;16.23;7.38;;;;;;;-0.77;62.63;99968.44;3603492;39;20059;-64
2022/12/14 07:32:02;;;;;;;16.85;8.07;;;;;;;-0.78;61.59;99965.84;3602955;39;20321;-64
2022/12/14 07:34:28;;;;;;;16.38;8.13;;;;;;;-0.79;62.41;99969.41;3604713;39;20094;-64
2022/12/14 07:36:54;;;;;;;13.38;7.85;;;;;;;-0.84;61.62;99968.66;3607610;39;20416;-66
2022/12/14 07:39:21;;;;;;;15.15;8.00;;;;;;;-0.88;63.03;99969.66;3603356;39;20069;-64
2022/12/14 07:41:49;;;;;;;17.15;8.00;;;;;;;-0.90;62.44;99977.59;3603026;39;20412;-64
2022/12/14 07:44:16;;;;;;;16.33;8.15;;;;;;;-0.91;62.97;99965.34;3604423;39;20051;-63
2022/12/14 07:46:42;;;;;;;14.50;7.60;;;;;;;-1.18;62.97;99924.78;3604619;39;20301;-64
2022/12/14 07:49:08;;;;;;;15.80;8.20;;;;;;;-0.92;62.22;99971.50;3605488;39;20054;-63
2022/12/14 07:51:40;;;;;;;15.70;8.32;;;;;;;-0.94;62.44;99976.84;3605000;39;20095;-65
2022/12/14 07:54:06;;;;;;;20.17;9.40;;;;;;;-0.95;62.20;99976.91;3605687;39;20051;-64
2022/12/14 07:56:37;;;;;;;18.13;9.23;;;;;;;-0.96;62.54;99968.09;3602138;39;20047;-64
2022/12/14 07:59:07;;;;;;;15.55;8.57;;;;;;;-0.97;62.64;99976.06;3605666;39;20047;-64
2022/12/14 08:01:35;;;;;;;16.70;8.35;;;;;;;-1.02;62.40;99980.59;3603251;39;20039;-64
2022/12/14 08:04:17;;;;;;;16.65;8.68;;;;;;;-1.09;63.57;99977.25;3602522;39;20047;-64
2022/12/14 08:06:43;;;;;;;16.83;8.30;;;;;;;-1.15;63.40;99976.56;3606111;39;20054;-64
2022/12/14 08:09:10;;;;;;;18.05;8.75;;;;;;;-1.21;63.61;99981.09;3603641;39;20051;-64
2022/12/14 08:11:38;;;;;;;14.20;8.63;;;;;;;-1.25;63.21;99974.19;3606131;39;20090;-64
2022/12/14 08:14:09;;;;;;;16.60;8.05;;;;;;;-1.25;63.62;99986.50;3603446;39;20128;-64
2022/12/14 08:16:35;;;;;;;18.40;9.05;;;;;;;-1.26;64.71;99983.00;3602898;39;20124;-65
2022/12/14 08:19:02;;;;;;;16.05;9.15;;;;;;;-1.26;64.76;99985.66;3602818;39;20047;-65
2022/12/14 08:21:28;;;;;;;17.35;9.45;;;;;;;-1.26;64.07;99985.66;3602880;39;20520;-65
2022/12/14 08:23:56;;;;;;;14.45;8.07;;;;;;;-1.25;64.15;100002.31;3604334;39;20344;-65
2022/12/14 08:26:24;;;;;;;18.13;9.02;;;;;;;-1.26;64.45;100001.47;3603115;39;20098;-63
2022/12/14 08:28:49;;;;;;;17.83;8.20;;;;;;;-1.28;64.14;99991.84;3604981;39;20052;-65
2022/12/14 08:31:20;;;;;;;15.90;8.80;;;;;;;-1.28;64.55;99997.13;3602794;39;20761;-64
2022/12/14 08:33:48;;;;;;;14.95;8.30;;;;;;;-1.27;63.88;99991.84;3607855;39;20051;-64
2022/12/14 08:36:33;;;;;;;17.10;9.02;;;;;;;-1.28;65.13;99998.00;3606506;39;20055;-64
2022/12/14 08:39:06;;;;;;;23.73;9.43;;;;;;;-1.26;64.28;99995.34;3602291;39;20054;-64
2022/12/14 08:41:32;;;;;;;18.73;10.27;;;;;;;-1.27;63.92;99996.22;3603575;39;20055;-65
2022/12/14 08:44:01;;;;;;;18.55;9.10;;;;;;;-1.27;64.70;100004.13;3600539;39;20112;-65
2022/12/14 08:46:30;;;;;;;16.95;9.27;;;;;;;-1.29;64.25;99998.91;3611575;39;20063;-63
2022/12/14 08:48:57;;;;;;;21.00;9.10;;;;;;;-1.30;64.14;100004.19;3608669;39;20055;-63
2022/12/14 08:51:24;;;;;;;16.48;9.23;;;;;;;-1.41;64.84;99991.31;3604547;39;20066;-64
2022/12/14 08:53:52;;;;;;;19.90;10.13;;;;;;;-1.59;64.17;99965.44;3594462;39;20374;-64
2022/12/14 08:56:23;;;;;;;16.55;9.75;;;;;;;-1.36;65.13;100005.25;3608859;39;20076;-63
2022/12/14 08:58:48;;;;;;;17.70;9.60;;;;;;;-1.34;64.13;100008.69;3606571;39;20419;-64
2022/12/14 09:01:21;;;;;;;17.77;9.80;;;;;;;-1.34;64.86;100002.56;3607976;39;20073;-65
2022/12/14 09:03:47;;;;;;;18.00;9.27;;;;;;;-1.33;63.93;99993.75;3606942;39;20047;-63
2022/12/14 09:06:20;;;;;;;16.75;9.18;;;;;;;-1.33;64.54;100001.66;3604373;39;20500;-64
2022/12/14 09:08:46;;;;;;;20.13;10.38;;;;;;;-1.33;64.10;99999.91;3608868;39;20055;-64
2022/12/14 09:11:16;;;;;;;22.67;10.52;;;;;;;-1.36;64.15;100005.25;3612380;39;20077;-64
2022/12/14 09:13:42;;;;;;;20.13;10.90;;;;;;;-1.37;64.36;100006.13;3606055;39;20082;-65
2022/12/14 09:16:14;;;;;;;16.42;9.50;;;;;;;-1.37;64.03;100014.06;3607368;39;20085;-64
2022/12/14 09:18:40;;;;;;;15.50;9.10;;;;;;;-1.33;63.77;100009.56;3607961;39;20053;-63
2022/12/14 09:21:07;;;;;;;17.88;9.43;;;;;;;-1.32;63.90;100017.44;3609352;39;20058;-64
2022/12/14 09:23:34;;;;;;;21.05;10.15;;;;;;;-1.28;63.88;100024.34;3609448;39;20062;-65
2022/12/14 09:26:07;;;;;;;15.75;9.45;;;;;;;-1.25;64.65;100021.63;3607365;39;20071;-64
2022/12/14 09:28:36;;;;;;;19.98;10.05;;;;;;;-1.25;63.60;100019.00;3604179;39;20255;-64
2022/12/14 09:31:06;;;;;;;17.02;9.18;;;;;;;-1.25;64.19;100019.00;3606746;39;20132;-65
2022/12/14 09:33:33;;;;;;;16.70;9.00;;;;;;;-1.26;63.58;100012.00;3604240;39;20048;-64
2022/12/14 09:36:07;;;;;;;13.68;8.15;;;;;;;-1.24;64.23;100026.03;3609029;39;20054;-64
2022/12/14 09:38:36;;;;;;;13.27;7.85;;;;;;;-1.23;63.83;100022.47;3603844;39;20059;-65
2022/12/14 09:41:14;;;;;;;17.70;8.57;;;;;;;-1.48;63.65;99980.06;3604417;39;20340;-65
2022/12/14 09:43:46;;;;;;;16.30;8.60;;;;;;;-1.32;63.62;100001.63;3608025;39;20066;-64
2022/12/14 09:46:27;;;;;;;15.75;7.60;;;;;;;-1.08;63.78;100030.88;3605092;39;20083;-64
2022/12/14 09:48:56;;;;;;;13.68;8.18;;;;;;;-1.10;63.35;100006.31;3609213;39;20411;-64
2022/12/14 09:51:31;;;;;;;14.57;7.93;;;;;;;-0.90;63.30;100019.81;3609008;39;20051;-64
2022/12/14 09:54:06;;;;;;;12.98;8.40;;;;;;;-0.75;63.30;100018.53;3607102;39;20080;-65
2022/12/14 09:56:33;;;;;;;15.70;8.13;;;;;;;-0.56;62.80;100009.16;3610330;39;20050;-64
2022/12/14 09:59:01;;;;;;;14.07;7.55;;;;;;;-0.32;62.02;100023.41;3603964;39;20083;-64
2022/12/14 10:02:03;;;;;;;12.45;7.47;;;;;;;-0.07;61.17;100022.66;3608944;39;20054;-64
2022/12/14 10:04:45;;;;;;;14.75;7.78;;;;;;;0.18;59.84;100031.53;3606121;39;20378;-64
2022/12/14 10:07:20;;;;;;;14.00;7.97;;;;;;;0.42;59.30;100029.00;3608871;39;20053;-64
2022/12/14 10:10:11;;;;;;;15.05;7.57;;;;;;;0.60;58.60;100019.59;3607457;39;20137;-64
2022/12/14 10:12:52;;;;;;;14.15;7.82;;;;;;;0.85;57.94;100014.31;3608940;39;20710;-64
2022/12/14 10:16:04;;;;;;;13.18;7.20;;;;;;;1.12;57.44;100016.00;3609660;39;20050;-64
2022/12/14 10:19:14;;;;;;;13.48;8.18;;;;;;;1.38;56.34;100012.38;3606710;39;20075;-64
2022/12/14 10:22:03;;;;;;;16.50;8.70;;;;;;;1.70;54.47;99996.19;3598497;39;20304;-64
2022/12/14 10:24:46;;;;;;;11.55;6.95;;;;;;;1.89;53.98;99994.53;3606396;39;20079;-64
2022/12/14 10:27:23;;;;;;;11.57;6.72;;;;;;;2.01;53.48;100002.00;3608518;39;20357;-64
2022/12/14 10:30:03;;;;;;;12.88;7.70;;;;;;;2.10;52.91;100003.44;3607202;39;20787;-66
2022/12/14 10:32:38;;;;;;;12.68;7.75;;;;;;;2.18;52.35;100014.56;3609040;39;20051;-64
2022/12/14 10:35:37;;;;;;;11.85;7.30;;;;;;;2.31;52.22;100006.97;3608011;39;20057;-64
2022/12/14 10:38:21;;;;;;;13.30;6.80;;;;;;;2.40;51.56;100006.59;3607698;39;20099;-63
2022/12/14 10:40:52;;;;;;;17.65;7.70;;;;;;;2.54;51.33;100006.06;3606882;39;20078;-64
2022/12/14 10:44:05;;;;;;;10.98;7.00;;;;;;;2.60;51.58;100012.88;3607237;39;20136;-63
2022/12/14 10:46:44;;;;;;;12.13;7.00;;;;;;;2.68;51.22;100010.75;3607089;39;20119;-64
2022/12/14 10:49:57;;;;;;;12.95;6.35;;;;;;;2.73;50.60;100008.78;3609324;39;20044;-64
2022/12/14 10:52:35;;;;;;;11.77;6.65;;;;;;;2.88;50.27;100016.06;3588052;39;20375;-64
2022/12/14 10:55:34;;;;;;;14.45;7.50;;;;;;;3.17;49.67;100017.47;3609966;39;20052;-64
2022/12/14 10:58:00;;;;;;;13.18;7.03;;;;;;;3.37;48.61;100007.75;3603560;39;20071;-64
2022/12/14 11:00:26;;;;;;;10.73;6.65;;;;;;;3.49;49.41;100010.69;3608014;39;20059;-64
2022/12/14 11:02:56;;;;;;;13.10;7.03;;;;;;;3.62;48.33;100010.13;3605406;39;20082;-66
2022/12/14 11:05:39;;;;;;;11.43;6.57;;;;;;;3.79;48.27;100007.53;3605631;39;20054;-64
2022/12/14 11:08:08;;;;;;;11.43;6.93;;;;;;;3.92;47.61;100005.16;3606622;39;20659;-64
2022/12/14 11:10:38;;;;;;;13.38;7.85;;;;;;;3.97;47.29;100010.28;3608144;39;20127;-65
2022/12/14 11:13:19;;;;;;;12.00;6.97;;;;;;;4.06;46.45;100021.34;3606603;39;20051;-64
2022/12/14 11:15:49;;;;;;;13.35;7.15;;;;;;;4.17;47.12;100018.16;3606135;39;20066;-63
2022/12/14 11:18:15;;;;;;;15.65;7.40;;;;;;;4.35;46.35;100019.06;3608407;39;20305;-64
2022/12/14 11:21:04;;;;;;;11.25;6.97;;;;;;;4.64;46.68;100021.13;3607505;39;20047;-64
2022/12/14 11:23:44;;;;;;;12.50;7.22;;;;;;;4.89;45.67;100012.75;3606241;39;20074;-64
2022/12/14 11:26:35;;;;;;;11.95;7.38;;;;;;;5.06;45.42;100013.66;3608166;39;20069;-64
2022/12/14 11:29:14;;;;;;;11.27;6.68;;;;;;;5.01;44.89;100007.72;3608088;39;20043;-64
2022/12/14 11:31:47;;;;;;;12.48;7.15;;;;;;;5.13;44.81;100021.25;3605912;39;20055;-64
2022/12/14 11:34:33;;;;;;;11.40;6.88;;;;;;;5.23;44.60;100016.34;3606639;39;20063;-65
2022/12/14 11:37:24;;;;;;;15.30;7.13;;;;;;;5.22;44.47;100008.41;3607849;39;20059;-64
2022/12/14 11:39:58;;;;;;;12.00;6.78;;;;;;;5.44;44.48;100018.78;3607046;39;21494;-65
2022/12/14 11:42:26;;;;;;;11.88;6.72;;;;;;;5.58;43.43;100011.78;3605213;39;20047;-64
2022/12/14 11:44:52;;;;;;;10.77;7.00;;;;;;;5.71;43.47;100003.97;3609135;39;20051;-64
2022/12/14 11:47:25;;;;;;;11.05;6.78;;;;;;;5.81;43.06;100010.50;3610075;39;20058;-64
2022/12/14 11:49:56;;;;;;;9.55;6.60;;;;;;;5.77;42.80;99974.28;3607954;39;20047;-64
2022/12/14 11:52:38;;;;;;;10.32;6.60;;;;;;;5.97;41.49;100001.69;3607246;39;20390;-64
2022/12/14 11:55:14;;;;;;;10.50;6.72;;;;;;;6.01;42.12;100008.56;3607055;39;20047;-64
2022/12/14 11:57:56;;;;;;;10.27;6.55;;;;;;;6.02;41.74;99999.59;3600502;39;20107;-63
2022/12/14 12:00:54;;;;;;;13.85;8.50;;;;;;;6.14;42.15;100009.59;3606330;39;20053;-64
2022/12/14 12:03:46;;;;;;;12.45;7.07;;;;;;;6.17;41.42;99982.72;3608414;39;20046;-64
2022/12/14 12:06:21;;;;;;;11.70;7.22;;;;;;;6.45;41.23;100007.84;3608087;39;20390;-64
2022/12/14 12:09:01;;;;;;;10.90;6.90;;;;;;;6.51;41.02;100005.66;3606175;39;20117;-64